sensor_id;sensor_type;location;lat;lon;timestamp;pressure;altitude;pressure_sealevel;temperature;humidity
28289;BME280;15558;50.874;6.964;2023-01-27T00:01:30;101851.84;;;7.58;76.82
28289;BME280;15558;50.874;6.964;2023-01-27T00:06:36;101850.56;;;7.66;76.56
28289;BME280;15558;50.874;6.964;2023-01-27T00:09:02;101845.84;;;7.66;76.13
28289;BME280;15558;50.874;6.964;2023-01-27T00:27:17;101845.84;;;7.66;76.33
28289;BME280;15558;50.874;6.964;2023-01-27T00:40:05;101856.81;;;7.56;75.77
28289;BME280;15558;50.874;6.964;2023-01-27T00:42:35;101855.75;;;7.57;75.73
28289;BME280;15558;50.874;6.964;2023-01-27T00:45:41;101849.56;;;7.55;75.56
28289;BME280;15558;50.874;6.964;2023-01-27T00:48:35;101856.00;;;7.56;75.46
28289;BME280;15558;50.874;6.964;2023-01-27T00:56:13;101866.47;;;7.65;75.37
28289;BME280;15558;50.874;6.964;2023-01-27T01:01:14;101870.44;;;7.53;75.54
28289;BME280;15558;50.874;6.964;2023-01-27T01:03:53;101871.31;;;7.53;75.91
28289;BME280;15558;50.874;6.964;2023-01-27T01:06:37;101877.97;;;7.52;75.61
28289;BME280;15558;50.874;6.964;2023-01-27T01:09:10;101878.94;;;7.58;75.35
28289;BME280;15558;50.874;6.964;2023-01-27T01:21:58;101896.47;;;7.53;75.54
28289;BME280;15558;50.874;6.964;2023-01-27T01:24:28;101899.31;;;7.58;75.64
28289;BME280;15558;50.874;6.964;2023-01-27T01:29:35;101900.75;;;7.61;75.36
28289;BME280;15558;50.874;6.964;2023-01-27T01:32:06;101890.69;;;7.60;75.63
28289;BME280;15558;50.874;6.964;2023-01-27T01:40:42;101898.81;;;7.61;75.53
28289;BME280;15558;50.874;6.964;2023-01-27T01:43:30;101908.66;;;7.64;75.48
28289;BME280;15558;50.874;6.964;2023-01-27T01:49:21;101904.81;;;7.69;75.60
28289;BME280;15558;50.874;6.964;2023-01-27T02:03:06;101897.97;;;7.61;74.59
28289;BME280;15558;50.874;6.964;2023-01-27T02:27:34;101901.13;;;7.64;74.08
28289;BME280;15558;50.874;6.964;2023-01-27T02:32:39;101904.50;;;7.66;74.28
28289;BME280;15558;50.874;6.964;2023-01-27T02:35:07;101908.31;;;7.60;73.54
28289;BME280;15558;50.874;6.964;2023-01-27T02:37:58;101907.19;;;7.61;73.95
28289;BME280;15558;50.874;6.964;2023-01-27T02:40:49;101908.06;;;7.62;74.18
28289;BME280;15558;50.874;6.964;2023-01-27T02:54:04;101907.94;;;7.57;74.16
28289;BME280;15558;50.874;6.964;2023-01-27T02:56:42;101905.91;;;7.52;73.87
28289;BME280;15558;50.874;6.964;2023-01-27T02:59:16;101909.72;;;7.46;74.42
28289;BME280;15558;50.874;6.964;2023-01-27T03:19:56;101916.09;;;7.58;73.93
28289;BME280;15558;50.874;6.964;2023-01-27T03:22:22;101917.22;;;7.57;73.43
28289;BME280;15558;50.874;6.964;2023-01-27T03:24:52;101921.59;;;7.53;73.61
28289;BME280;15558;50.874;6.964;2023-01-27T04:01:44;101933.78;;;7.47;72.34
28289;BME280;15558;50.874;6.964;2023-01-27T04:35:53;101944.44;;;7.50;72.05
28289;BME280;15558;50.874;6.964;2023-01-27T04:38:34;101939.44;;;7.52;71.70
28289;BME280;15558;50.874;6.964;2023-01-27T04:41:24;101945.38;;;7.56;71.91
28289;BME280;15558;50.874;6.964;2023-01-27T05:02:02;101959.59;;;7.54;72.33
28289;BME280;15558;50.874;6.964;2023-01-27T05:15:02;101963.06;;;7.45;73.09
28289;BME280;15558;50.874;6.964;2023-01-27T05:56:32;101989.72;;;7.52;72.16
28289;BME280;15558;50.874;6.964;2023-01-27T06:17:26;101988.63;;;7.53;73.07
28289;BME280;15558;50.874;6.964;2023-01-27T06:20:00;101989.72;;;7.52;73.24
28289;BME280;15558;50.874;6.964;2023-01-27T06:23:05;101994.63;;;7.45;72.74
28289;BME280;15558;50.874;6.964;2023-01-27T06:25:55;101994.63;;;7.45;72.83
28289;BME280;15558;50.874;6.964;2023-01-27T06:29:07;101993.03;;;7.49;72.74
28289;BME280;15558;50.874;6.964;2023-01-27T06:37:24;101996.00;;;7.59;72.66
28289;BME280;15558;50.874;6.964;2023-01-27T07:03:04;102012.13;;;7.68;72.21
28289;BME280;15558;50.874;6.964;2023-01-27T07:06:10;102006.03;;;7.71;72.27
28289;BME280;15558;50.874;6.964;2023-01-27T07:16:50;102022.47;;;7.68;71.89
28289;BME280;15558;50.874;6.964;2023-01-27T07:19:16;102022.53;;;7.73;72.09
28289;BME280;15558;50.874;6.964;2023-01-27T07:21:43;102035.16;;;7.75;71.73
28289;BME280;15558;50.874;6.964;2023-01-27T07:24:09;102032.78;;;7.68;71.78
28289;BME280;15558;50.874;6.964;2023-01-27T07:26:34;102032.63;;;7.74;72.23
28289;BME280;15558;50.874;6.964;2023-01-27T07:29:00;102031.47;;;7.86;71.40
28289;BME280;15558;50.874;6.964;2023-01-27T07:31:27;102039.34;;;7.89;71.20
28289;BME280;15558;50.874;6.964;2023-01-27T07:33:57;102036.91;;;7.93;71.29
28289;BME280;15558;50.874;6.964;2023-01-27T07:36:30;102043.69;;;7.97;71.28
28289;BME280;15558;50.874;6.964;2023-01-27T07:52:27;102053.16;;;7.96;71.02
28289;BME280;15558;50.874;6.964;2023-01-27T07:55:08;102033.69;;;8.01;71.10
28289;BME280;15558;50.874;6.964;2023-01-27T08:11:30;102058.47;;;8.08;70.45
28289;BME280;15558;50.874;6.964;2023-01-27T08:16:40;102046.88;;;8.16;70.31
28289;BME280;15558;50.874;6.964;2023-01-27T08:19:23;102062.06;;;8.20;69.78
28289;BME280;15558;50.874;6.964;2023-01-27T08:21:56;102059.78;;;8.17;70.29
28289;BME280;15558;50.874;6.964;2023-01-27T08:24:40;102055.47;;;8.26;70.33
28289;BME280;15558;50.874;6.964;2023-01-27T08:27:29;102053.06;;;8.18;70.79
28289;BME280;15558;50.874;6.964;2023-01-27T08:30:17;102053.44;;;8.22;70.52
28289;BME280;15558;50.874;6.964;2023-01-27T08:36:04;102062.25;;;8.30;69.86
28289;BME280;15558;50.874;6.964;2023-01-27T08:38:50;102065.09;;;8.19;70.25
28289;BME280;15558;50.874;6.964;2023-01-27T08:41:38;102068.00;;;8.24;70.09
28289;BME280;15558;50.874;6.964;2023-01-27T08:47:10;102066.25;;;8.34;69.55
28289;BME280;15558;50.874;6.964;2023-01-27T08:58:26;102064.94;;;8.41;70.19
28289;BME280;15558;50.874;6.964;2023-01-27T09:01:21;102070.72;;;8.51;69.49
28289;BME280;15558;50.874;6.964;2023-01-27T09:30:26;102062.38;;;11.14;63.01
28289;BME280;15558;50.874;6.964;2023-01-27T09:32:59;102064.84;;;11.06;62.04
28289;BME280;15558;50.874;6.964;2023-01-27T09:39:07;102065.81;;;10.80;62.74
28289;BME280;15558;50.874;6.964;2023-01-27T09:51:23;102086.09;;;10.56;62.85
28289;BME280;15558;50.874;6.964;2023-01-27T10:29:48;102131.53;;;9.84;64.71
28289;BME280;15558;50.874;6.964;2023-01-27T10:33:02;102130.13;;;9.82;64.64
28289;BME280;15558;50.874;6.964;2023-01-27T11:08:18;102131.59;;;9.68;64.54
28289;BME280;15558;50.874;6.964;2023-01-27T11:18:52;102117.28;;;9.44;65.33
28289;BME280;15558;50.874;6.964;2023-01-27T11:21:55;102114.59;;;9.53;64.54
28289;BME280;15558;50.874;6.964;2023-01-27T11:24:35;102109.09;;;9.84;63.69
28289;BME280;15558;50.874;6.964;2023-01-27T11:27:19;102102.88;;;9.99;63.12
28289;BME280;15558;50.874;6.964;2023-01-27T11:30:14;102108.09;;;9.48;65.23
28289;BME280;15558;50.874;6.964;2023-01-27T11:54:30;102096.72;;;9.38;64.00
28289;BME280;15558;50.874;6.964;2023-01-27T11:57:25;102089.31;;;9.48;64.32
28289;BME280;15558;50.874;6.964;2023-01-27T13:46:16;102068.22;;;10.10;60.86
28289;BME280;15558;50.874;6.964;2023-01-27T14:08:04;102086.16;;;10.09;61.19
28289;BME280;15558;50.874;6.964;2023-01-27T14:29:40;102088.41;;;10.12;60.54
28289;BME280;15558;50.874;6.964;2023-01-27T15:46:57;102166.16;;;9.90;61.18
28289;BME280;15558;50.874;6.964;2023-01-27T15:49:34;102166.81;;;9.80;60.92
28289;BME280;15558;50.874;6.964;2023-01-27T15:54:53;102160.63;;;9.78;61.41
28289;BME280;15558;50.874;6.964;2023-01-27T15:57:27;102169.72;;;9.85;61.08
28289;BME280;15558;50.874;6.964;2023-01-27T16:00:31;102173.88;;;9.83;61.24
28289;BME280;15558;50.874;6.964;2023-01-27T16:11:41;102180.69;;;9.87;61.11
28289;BME280;15558;50.874;6.964;2023-01-27T16:13:52;102189.25;;;9.80;61.01
28289;BME280;15558;50.874;6.964;2023-01-27T16:22:46;102204.94;;;9.77;61.32
28289;BME280;15558;50.874;6.964;2023-01-27T16:25:38;102197.00;;;9.74;61.89
28289;BME280;15558;50.874;6.964;2023-01-27T16:31:18;102204.38;;;9.58;61.25
28289;BME280;15558;50.874;6.964;2023-01-27T16:47:25;102218.63;;;9.57;61.28
28289;BME280;15558;50.874;6.964;2023-01-27T16:56:14;102229.91;;;9.62;61.90
28289;BME280;15558;50.874;6.964;2023-01-27T16:59:23;102231.22;;;9.54;61.61
28289;BME280;15558;50.874;6.964;2023-01-27T17:07:15;102241.41;;;9.44;61.63
28289;BME280;15558;50.874;6.964;2023-01-27T17:15:29;102247.34;;;9.47;62.35
28289;BME280;15558;50.874;6.964;2023-01-27T17:26:12;102251.44;;;9.40;62.50
28289;BME280;15558;50.874;6.964;2023-01-27T17:34:18;102255.69;;;9.43;62.00
28289;BME280;15558;50.874;6.964;2023-01-27T17:39:40;102251.25;;;9.46;61.76
28289;BME280;15558;50.874;6.964;2023-01-27T17:55:32;102254.91;;;9.31;62.62
28289;BME280;15558;50.874;6.964;2023-01-27T18:00:44;102261.81;;;9.40;62.63
28289;BME280;15558;50.874;6.964;2023-01-27T18:08:34;102263.06;;;9.32;62.13
28289;BME280;15558;50.874;6.964;2023-01-27T18:22:07;102276.91;;;9.39;62.60
28289;BME280;15558;50.874;6.964;2023-01-27T18:27:35;102285.84;;;9.36;62.83
28289;BME280;15558;50.874;6.964;2023-01-27T18:30:06;102278.63;;;9.40;62.89
28289;BME280;15558;50.874;6.964;2023-01-27T18:40:32;102284.66;;;9.32;62.39
28289;BME280;15558;50.874;6.964;2023-01-27T18:43:03;102288.81;;;9.29;62.96
28289;BME280;15558;50.874;6.964;2023-01-27T18:45:47;102296.28;;;9.24;63.06
28289;BME280;15558;50.874;6.964;2023-01-27T18:48:48;102294.59;;;9.23;62.77
28289;BME280;15558;50.874;6.964;2023-01-27T18:51:33;102282.59;;;9.27;62.49
28289;BME280;15558;50.874;6.964;2023-01-27T18:54:08;102292.22;;;9.31;62.95
28289;BME280;15558;50.874;6.964;2023-01-27T18:56:38;102287.03;;;9.23;62.83
28289;BME280;15558;50.874;6.964;2023-01-27T18:59:34;102301.19;;;9.17;63.51
28289;BME280;15558;50.874;6.964;2023-01-27T19:08:13;102293.88;;;9.16;62.76
28289;BME280;15558;50.874;6.964;2023-01-27T19:10:43;102292.28;;;9.20;62.49
28289;BME280;15558;50.874;6.964;2023-01-27T19:13:15;102299.47;;;9.16;62.65
28289;BME280;15558;50.874;6.964;2023-01-27T19:15:43;102306.44;;;9.13;63.24
28289;BME280;15558;50.874;6.964;2023-01-27T19:18:35;102289.88;;;9.12;63.43
28289;BME280;15558;50.874;6.964;2023-01-27T19:21:16;102305.09;;;9.16;62.92
28289;BME280;15558;50.874;6.964;2023-01-27T19:24:03;102307.22;;;9.09;62.64
28289;BME280;15558;50.874;6.964;2023-01-27T19:26:30;102308.13;;;8.98;62.89
28289;BME280;15558;50.874;6.964;2023-01-27T19:28:56;102293.78;;;9.11;62.91
28289;BME280;15558;50.874;6.964;2023-01-27T19:31:22;102309.00;;;9.15;62.41
28289;BME280;15558;50.874;6.964;2023-01-27T19:33:48;102303.72;;;9.18;62.90
28289;BME280;15558;50.874;6.964;2023-01-27T19:36:25;102296.34;;;9.12;62.57
28289;BME280;15558;50.874;6.964;2023-01-27T19:39:00;102302.03;;;9.17;62.29
28289;BME280;15558;50.874;6.964;2023-01-27T19:41:37;102297.19;;;9.13;61.93
28289;BME280;15558;50.874;6.964;2023-01-27T19:44:03;102297.28;;;9.18;62.80
28289;BME280;15558;50.874;6.964;2023-01-27T19:46:29;102293.56;;;9.12;62.40
28289;BME280;15558;50.874;6.964;2023-01-27T19:48:55;102293.69;;;9.06;62.84
28289;BME280;15558;50.874;6.964;2023-01-27T19:51:21;102299.22;;;9.17;61.71
28289;BME280;15558;50.874;6.964;2023-01-27T19:53:48;102294.28;;;9.08;62.32
28289;BME280;15558;50.874;6.964;2023-01-27T19:56:18;102299.72;;;8.98;62.91
28289;BME280;15558;50.874;6.964;2023-01-27T19:58:45;102306.25;;;9.04;62.61
28289;BME280;15558;50.874;6.964;2023-01-27T20:01:16;102312.81;;;9.09;63.10
28289;BME280;15558;50.874;6.964;2023-01-27T20:03:42;102314.75;;;9.09;62.92
28289;BME280;15558;50.874;6.964;2023-01-27T20:06:16;102318.66;;;9.08;63.35
28289;BME280;15558;50.874;6.964;2023-01-27T20:08:42;102321.03;;;9.15;62.57
28289;BME280;15558;50.874;6.964;2023-01-27T20:11:51;102320.22;;;9.15;62.56
28289;BME280;15558;50.874;6.964;2023-01-27T20:13:58;102338.84;;;9.09;62.24
28289;BME280;15558;50.874;6.964;2023-01-27T20:16:24;102344.22;;;9.11;62.50
28289;BME280;15558;50.874;6.964;2023-01-27T20:18:51;102342.00;;;9.13;62.99
28289;BME280;15558;50.874;6.964;2023-01-27T20:21:17;102332.16;;;9.10;62.16
28289;BME280;15558;50.874;6.964;2023-01-27T20:23:45;102338.09;;;9.14;62.54
28289;BME280;15558;50.874;6.964;2023-01-27T20:26:14;102337.19;;;9.09;62.46
28289;BME280;15558;50.874;6.964;2023-01-27T20:28:40;102336.66;;;9.11;62.32
28289;BME280;15558;50.874;6.964;2023-01-27T20:31:10;102339.53;;;9.16;63.11
28289;BME280;15558;50.874;6.964;2023-01-27T20:33:36;102331.06;;;9.11;63.12
28289;BME280;15558;50.874;6.964;2023-01-27T20:36:10;102336.66;;;9.11;62.41
28289;BME280;15558;50.874;6.964;2023-01-27T20:38:37;102344.38;;;9.05;62.49
28289;BME280;15558;50.874;6.964;2023-01-27T20:41:06;102348.03;;;9.05;62.79
28289;BME280;15558;50.874;6.964;2023-01-27T20:43:32;102353.47;;;9.11;62.61
28289;BME280;15558;50.874;6.964;2023-01-27T20:46:02;102347.03;;;9.11;62.73
28289;BME280;15558;50.874;6.964;2023-01-27T20:48:30;102344.66;;;9.19;62.60
28289;BME280;15558;50.874;6.964;2023-01-27T20:50:57;102342.00;;;9.13;62.51
28289;BME280;15558;50.874;6.964;2023-01-27T20:53:23;102350.72;;;9.00;61.95
28289;BME280;15558;50.874;6.964;2023-01-27T20:55:48;102348.56;;;8.91;61.99
28289;BME280;15558;50.874;6.964;2023-01-27T20:58:14;102356.41;;;9.05;62.05
28289;BME280;15558;50.874;6.964;2023-01-27T21:00:40;102356.56;;;8.99;61.69
28289;BME280;15558;50.874;6.964;2023-01-27T21:03:06;102362.19;;;8.99;61.40
28289;BME280;15558;50.874;6.964;2023-01-27T21:05:32;102352.06;;;8.98;61.57
28289;BME280;15558;50.874;6.964;2023-01-27T21:07:58;102356.22;;;8.95;61.74
28289;BME280;15558;50.874;6.964;2023-01-27T21:10:24;102361.41;;;9.03;61.61
28289;BME280;15558;50.874;6.964;2023-01-27T21:12:50;102364.47;;;9.02;60.85
28289;BME280;15558;50.874;6.964;2023-01-27T21:15:16;102361.94;;;9.00;61.50
28289;BME280;15558;50.874;6.964;2023-01-27T21:17:42;102362.03;;;9.05;61.06
28289;BME280;15558;50.874;6.964;2023-01-27T21:20:08;102359.22;;;9.05;61.42
28289;BME280;15558;50.874;6.964;2023-01-27T21:22:34;102364.91;;;9.10;61.18
28289;BME280;15558;50.874;6.964;2023-01-27T21:25:00;102363.63;;;9.01;61.69
28289;BME280;15558;50.874;6.964;2023-01-27T21:27:26;102363.38;;;9.03;61.26
28289;BME280;15558;50.874;6.964;2023-01-27T21:29:51;102363.88;;;9.00;60.29
28289;BME280;15558;50.874;6.964;2023-01-27T21:32:18;102360.97;;;8.95;61.32
28289;BME280;15558;50.874;6.964;2023-01-27T21:34:44;102358.69;;;8.92;61.24
28289;BME280;15558;50.874;6.964;2023-01-27T21:37:09;102360.72;;;8.96;61.46
28289;BME280;15558;50.874;6.964;2023-01-27T21:39:35;102361.22;;;8.93;60.98
28289;BME280;15558;50.874;6.964;2023-01-27T21:42:01;102356.44;;;8.77;60.24
28289;BME280;15558;50.874;6.964;2023-01-27T21:44:27;102355.75;;;8.87;60.04
28289;BME280;15558;50.874;6.964;2023-01-27T21:47:14;102358.69;;;8.92;59.96
28289;BME280;15558;50.874;6.964;2023-01-27T21:49:40;102358.94;;;8.90;59.94
28289;BME280;15558;50.874;6.964;2023-01-27T21:52:35;102358.31;;;8.88;60.19
28289;BME280;15558;50.874;6.964;2023-01-27T21:55:04;102353.13;;;8.80;59.66
28289;BME280;15558;50.874;6.964;2023-01-27T21:57:30;102354.16;;;8.91;59.06
28289;BME280;15558;50.874;6.964;2023-01-27T21:59:56;102363.34;;;8.75;59.20
28289;BME280;15558;50.874;6.964;2023-01-27T22:02:22;102358.31;;;8.88;59.29
28289;BME280;15558;50.874;6.964;2023-01-27T22:04:48;102358.72;;;8.80;59.47
28289;BME280;15558;50.874;6.964;2023-01-27T22:07:15;102361.50;;;8.80;59.79
28289;BME280;15558;50.874;6.964;2023-01-27T22:09:44;102358.63;;;8.75;59.25
28289;BME280;15558;50.874;6.964;2023-01-27T22:12:11;102358.03;;;8.74;59.71
28289;BME280;15558;50.874;6.964;2023-01-27T22:14:37;102356.44;;;8.77;59.50
28289;BME280;15558;50.874;6.964;2023-01-27T22:17:03;102361.50;;;8.80;59.58
28289;BME280;15558;50.874;6.964;2023-01-27T22:19:31;102353.22;;;8.85;59.82
28289;BME280;15558;50.874;6.964;2023-01-27T22:21:57;102344.19;;;8.67;60.46
28289;BME280;15558;50.874;6.964;2023-01-27T22:24:30;102348.47;;;8.86;60.07
28289;BME280;15558;50.874;6.964;2023-01-27T22:26:56;102348.97;;;8.83;60.10
28289;BME280;15558;50.874;6.964;2023-01-27T22:29:22;102355.53;;;8.88;60.56
28289;BME280;15558;50.874;6.964;2023-01-27T22:31:48;102356.59;;;8.87;60.73
28289;BME280;15558;50.874;6.964;2023-01-27T22:34:14;102361.88;;;8.84;60.31
28289;BME280;15558;50.874;6.964;2023-01-27T22:36:41;102355.53;;;8.88;60.78
28289;BME280;15558;50.874;6.964;2023-01-27T22:39:06;102359.69;;;8.86;60.97
28289;BME280;15558;50.874;6.964;2023-01-27T22:41:32;102357.47;;;8.88;61.11
28289;BME280;15558;50.874;6.964;2023-01-27T22:43:58;102357.47;;;8.88;60.97
28289;BME280;15558;50.874;6.964;2023-01-27T22:46:24;102360.75;;;8.85;60.74
28289;BME280;15558;50.874;6.964;2023-01-27T22:48:50;102354.94;;;8.86;61.19
28289;BME280;15558;50.874;6.964;2023-01-27T22:51:16;102356.53;;;8.82;60.94
28289;BME280;15558;50.874;6.964;2023-01-27T22:53:42;102364.81;;;8.77;60.94
28289;BME280;15558;50.874;6.964;2023-01-27T22:56:08;102365.75;;;8.83;61.04
28289;BME280;15558;50.874;6.964;2023-01-27T22:58:34;102357.38;;;8.83;60.78
28289;BME280;15558;50.874;6.964;2023-01-27T23:01:03;102364.31;;;8.80;60.41
28289;BME280;15558;50.874;6.964;2023-01-27T23:03:29;102361.44;;;8.75;60.87
28289;BME280;15558;50.874;6.964;2023-01-27T23:05:55;102354.72;;;8.76;60.72
28289;BME280;15558;50.874;6.964;2023-01-27T23:08:21;102361.28;;;8.82;60.77
28289;BME280;15558;50.874;6.964;2023-01-27T23:10:47;102353.03;;;8.75;59.98
28289;BME280;15558;50.874;6.964;2023-01-27T23:13:14;102354.25;;;8.68;60.84
28289;BME280;15558;50.874;6.964;2023-01-27T23:15:40;102356.56;;;8.71;60.51
28289;BME280;15558;50.874;6.964;2023-01-27T23:18:05;102364.47;;;8.74;60.46
28289;BME280;15558;50.874;6.964;2023-01-27T23:20:39;102363.03;;;8.72;60.54
28289;BME280;15558;50.874;6.964;2023-01-27T23:23:06;102362.03;;;8.77;60.17
28289;BME280;15558;50.874;6.964;2023-01-27T23:25:32;102365.22;;;8.70;61.17
28289;BME280;15558;50.874;6.964;2023-01-27T23:27:58;102366.16;;;8.75;60.48
28289;BME280;15558;50.874;6.964;2023-01-27T23:30:24;102368.09;;;8.74;60.36
28289;BME280;15558;50.874;6.964;2023-01-27T23:32:53;102366.66;;;8.72;60.12
28289;BME280;15558;50.874;6.964;2023-01-27T23:35:19;102374.22;;;8.72;61.26
28289;BME280;15558;50.874;6.964;2023-01-27T23:37:45;102372.13;;;8.78;60.28
28289;BME280;15558;50.874;6.964;2023-01-27T23:40:11;102374.97;;;8.67;60.92
28289;BME280;15558;50.874;6.964;2023-01-27T23:42:37;102372.03;;;8.62;60.81
28289;BME280;15558;50.874;6.964;2023-01-27T23:45:03;102368.50;;;8.67;60.58
28289;BME280;15558;50.874;6.964;2023-01-27T23:47:29;102367.28;;;8.63;60.54
28289;BME280;15558;50.874;6.964;2023-01-27T23:49:54;102367.41;;;8.68;60.66
28289;BME280;15558;50.874;6.964;2023-01-27T23:52:20;102358.88;;;8.63;60.32
28289;BME280;15558;50.874;6.964;2023-01-27T23:54:47;102357.19;;;8.62;60.54
28289;BME280;15558;50.874;6.964;2023-01-27T23:57:13;102354.66;;;8.60;60.66
28289;BME280;15558;50.874;6.964;2023-01-27T23:59:39;102359.53;;;8.53;60.33
